Damascus, VA

11:54 EDT je la 25an de julio 2016 (GMT -0400)
Taylor Valley | | Change Station

Elev 2395 ft 36.62 °N, 81.72 °W | Updated 11 minutes ago

Mostly Cloudy
Pliparte nuba
85.8 °F
Sentas kiel 91 °F
N
2.2
Vento Varianta Vento from NNOr

hodiaŭ
High -- | Low -- °F
--% Ebla precip.
hieraŭ
High -- | Low -- °F
Precip. -- co
Aerpremo 30.15 co
Vidodistanco 10.0 mejloj
Nuboj Malpliparte nuba 2500 ft
Pliparte nuba 3600 ft
Varmindico 91 °F
Rosopunkto 71 °F
Humido 61%
Pluvokvanto 0.00 co
Neĝprofundo Not available.
6:28 AM 8:38 PM
Malkreskanta Lunĝibo, 65% visible
METAR KVJI 251535Z AUTO 34007KT 10SM SCT025 BKN036 30/23 A3015 RMK AO2 T02970229
Aerpremo 30.15 co
Vidodistanco 10.0 mejloj
Nuboj Malpliparte nuba 2500 ft
Pliparte nuba 3600 ft
Varmindico 91 °F
Rosopunkto 71 °F
Humido 61%
Pluvokvanto 0.00 co
Neĝprofundo Not available.
6:28 AM 8:38 PM
Malkreskanta Lunĝibo, 65% visible
METAR KVJI 251535Z AUTO 34007KT 10SM SCT025 BKN036 30/23 A3015 RMK AO2 T02970229

10-Day Weather Forecast

Almanac

Astronomio

Jul. 25, 2016 Leviĝo Subiro
Aktuala tempo
Civila krepusko
Naŭtika krepusko
Astronomia krepusko
Luno
Daŭro de videbla lumo
Daŭro de tago
Tomorrow will be .
, % of the Moon is Illuminated

Hodiaŭaj ekstremaĵoj

State Highs State Lows

Community

WunderPhotos

Upload Photos

1,927,329 photos uploaded!

WunderBlog® & News

Nearby

Aerkvalito

  Aerkvalito Aerkvalita indico Poluanto
Not available.

Neĝa profundeco

Station Depth Alteco

Earthquake Activity

Urbo Distance Mag. Time & Date
Minimum magnitude displayed is 2.5.

Coastal Water Temperatures

Loko Temperaturo

Stations

Najbaraj veter-stacioj

Loko de stacio Temp Venta
kvazaŭtemperaturo
Rosopunkto Humido Vento Precip. Elev Ĝisdatigita je Tipo
                   

Watches & Warnings

There are currently no watches in effect.